createdAt,value
2017-09-23T00:01:18.762Z,38.53
2017-09-23T00:03:46.184Z,35.33
2017-09-23T00:06:14.400Z,34.03
2017-09-23T00:08:41.851Z,34.00
2017-09-23T00:11:09.263Z,35.80
2017-09-23T00:13:37.478Z,34.47
2017-09-23T00:16:04.895Z,31.47
2017-09-23T00:18:33.070Z,35.00
2017-09-23T00:21:01.287Z,34.50
2017-09-23T00:23:28.738Z,33.60
2017-09-23T00:25:56.304Z,33.40
2017-09-23T00:28:23.707Z,33.40
2017-09-23T00:30:52.626Z,32.27
2017-09-23T00:33:20.099Z,35.77
2017-09-23T00:35:47.514Z,34.80
2017-09-23T00:38:14.922Z,32.93
2017-09-23T00:40:42.371Z,32.50
2017-09-23T00:43:09.787Z,32.70
2017-09-23T00:45:38.003Z,32.60
2017-09-23T00:48:05.460Z,33.40
2017-09-23T00:50:32.879Z,33.97
2017-09-23T00:53:01.087Z,34.10
2017-09-23T00:55:28.499Z,34.03
2017-09-23T00:57:56.719Z,35.20
2017-09-23T01:00:24.181Z,33.13
2017-09-23T01:02:51.587Z,33.90
2017-09-23T01:05:19.775Z,35.50
2017-09-23T01:07:47.950Z,34.33
2017-09-23T01:10:15.370Z,33.67
2017-09-23T01:12:42.786Z,33.03
2017-09-23T01:15:10.760Z,33.63
2017-09-23T01:17:38.177Z,33.00
2017-09-23T01:20:06.354Z,34.47
2017-09-23T01:22:34.535Z,33.17
2017-09-23T01:25:01.959Z,33.50
2017-09-23T01:27:29.472Z,33.30
2017-09-23T01:29:56.951Z,32.83
2017-09-23T01:32:24.431Z,33.40
2017-09-23T01:34:51.876Z,31.97
2017-09-23T01:37:19.339Z,31.40
2017-09-23T01:39:46.763Z,29.20
2017-09-23T01:42:14.175Z,29.80
2017-09-23T01:44:42.355Z,30.10
2017-09-23T01:47:10.560Z,29.03
2017-09-23T01:49:38.467Z,30.03
2017-09-23T01:52:05.878Z,29.30
2017-09-23T01:54:33.298Z,30.80
2017-09-23T01:57:01.518Z,30.27
2017-09-23T01:59:29.716Z,29.00
2017-09-23T02:01:57.146Z,28.97
2017-09-23T02:04:24.608Z,27.90
2017-09-23T02:06:52.006Z,28.03
2017-09-23T02:09:19.418Z,28.30
2017-09-23T02:11:46.830Z,28.60
2017-09-23T02:14:15.016Z,30.43
2017-09-23T02:16:42.501Z,30.60
2017-09-23T02:19:09.911Z,29.07
2017-09-23T02:21:38.133Z,29.10
2017-09-23T02:24:05.549Z,28.50
2017-09-23T02:26:33.760Z,27.30
2017-09-23T02:29:01.170Z,28.20
2017-09-23T02:31:29.351Z,27.10
2017-09-23T02:33:57.542Z,27.93
2017-09-23T02:36:25.030Z,27.17
2017-09-23T02:38:52.440Z,29.60
2017-09-23T02:41:20.644Z,28.20
2017-09-23T02:43:48.059Z,28.03
2017-09-23T02:46:16.234Z,28.53
2017-09-23T02:48:44.420Z,29.10
2017-09-23T02:51:12.624Z,28.63
2017-09-23T02:53:40.037Z,30.30
2017-09-23T02:56:09.024Z,30.47
2017-09-23T02:58:37.239Z,31.13
2017-09-23T03:01:05.416Z,28.80
2017-09-23T03:03:32.822Z,28.10
2017-09-23T03:06:01.003Z,27.37
2017-09-23T03:08:29.182Z,28.57
2017-09-23T03:10:57.366Z,29.83
2017-09-23T03:13:25.563Z,28.20
2017-09-23T03:15:52.975Z,29.13
2017-09-23T03:18:20.395Z,26.73
2017-09-23T03:20:47.838Z,27.03
2017-09-23T03:23:15.255Z,27.80
2017-09-23T03:25:45.063Z,28.57
2017-09-23T03:28:13.241Z,26.63
2017-09-23T03:30:41.451Z,27.20
2017-09-23T03:33:08.870Z,28.33
2017-09-23T03:35:37.044Z,29.20
2017-09-23T03:38:05.229Z,28.40
2017-09-23T03:40:32.647Z,30.20
2017-09-23T03:43:00.063Z,28.47
2017-09-23T03:45:27.746Z,28.03
2017-09-23T03:47:55.970Z,27.23
2017-09-23T03:50:24.163Z,26.50
2017-09-23T03:52:51.628Z,30.23
2017-09-23T03:55:19.038Z,28.00
2017-09-23T03:57:47.219Z,28.00
2017-09-23T04:00:15.419Z,28.83
2017-09-23T04:02:42.883Z,26.97
2017-09-23T04:05:10.351Z,26.20
2017-09-23T04:07:37.818Z,27.60
2017-09-23T04:10:05.255Z,28.37
2017-09-23T04:12:32.710Z,28.23
2017-09-23T04:15:00.128Z,28.90
2017-09-23T04:17:28.347Z,30.17
2017-09-23T04:19:55.762Z,27.03
2017-09-23T04:22:23.978Z,29.00
2017-09-23T04:24:51.386Z,27.70
2017-09-23T04:27:19.606Z,26.17
2017-09-23T04:29:47.010Z,26.43
2017-09-23T04:32:15.195Z,26.43
2017-09-23T04:34:43.379Z,26.97
2017-09-23T04:37:11.587Z,28.83
2017-09-23T04:39:39.040Z,29.03
2017-09-23T04:42:06.459Z,27.07
2017-09-23T04:44:34.675Z,26.90
2017-09-23T04:47:02.091Z,27.60
2017-09-23T04:49:30.299Z,28.50
2017-09-23T04:51:57.753Z,29.60
2017-09-23T04:54:25.163Z,27.60
2017-09-23T04:56:53.347Z,27.13
2017-09-23T04:59:21.555Z,28.10
2017-09-23T05:01:48.973Z,25.63
2017-09-23T05:04:17.153Z,25.53
2017-09-23T05:06:44.654Z,25.60
2017-09-23T05:09:12.094Z,24.73
2017-09-23T05:11:39.661Z,25.00
2017-09-23T05:14:07.059Z,27.43
2017-09-23T05:16:35.282Z,25.90
2017-09-23T05:19:02.743Z,25.63
2017-09-23T05:21:30.603Z,26.83
2017-09-23T05:23:58.026Z,26.40
2017-09-23T05:26:26.206Z,32.63
2017-09-23T05:28:54.406Z,33.23
2017-09-23T05:31:21.822Z,31.57
2017-09-23T05:33:50.012Z,33.20
2017-09-23T05:36:18.195Z,35.23
2017-09-23T05:38:45.610Z,34.10
2017-09-23T05:41:13.127Z,33.83
2017-09-23T05:43:40.540Z,32.83
2017-09-23T05:46:08.731Z,31.20
2017-09-23T05:48:36.923Z,31.77
2017-09-23T05:51:04.794Z,31.83
2017-09-23T05:53:32.274Z,32.13
2017-09-23T05:55:59.702Z,31.47
2017-09-23T05:58:27.784Z,32.53
2017-09-23T06:00:55.205Z,29.80
2017-09-23T06:03:23.719Z,32.50
2017-09-23T06:05:51.170Z,33.40
2017-09-23T06:08:21.507Z,35.57
2017-09-23T06:10:48.956Z,33.80
2017-09-23T06:13:16.375Z,34.90
2017-09-23T06:15:45.392Z,33.70
2017-09-23T06:18:13.231Z,40.60
2017-09-23T06:20:41.439Z,40.77
2017-09-23T06:23:08.910Z,40.87
2017-09-23T06:25:36.315Z,41.00
2017-09-23T06:28:04.527Z,39.53
2017-09-23T06:30:32.314Z,41.50
2017-09-23T06:32:59.734Z,42.70
2017-09-23T06:35:27.151Z,43.70
2017-09-23T06:37:54.564Z,43.73
2017-09-23T06:40:21.978Z,42.20
2017-09-23T06:42:50.168Z,44.87
2017-09-23T06:45:17.579Z,43.53
2017-09-23T06:47:44.991Z,45.70
2017-09-23T06:50:12.460Z,41.70
2017-09-23T06:52:40.371Z,43.20
2017-09-23T06:55:07.791Z,43.13
2017-09-23T06:57:35.345Z,43.60
2017-09-23T07:00:02.791Z,44.10
2017-09-23T07:02:30.980Z,41.63
2017-09-23T07:04:58.418Z,42.30
2017-09-23T07:07:25.831Z,44.17
2017-09-23T07:09:54.016Z,44.10
2017-09-23T07:12:22.196Z,45.97
2017-09-23T07:14:50.407Z,46.07
2017-09-23T07:17:18.470Z,46.90
2017-09-23T07:19:45.883Z,47.83
2017-09-23T07:22:13.591Z,49.80
2017-09-23T07:24:41.003Z,49.17
2017-09-23T07:27:09.224Z,51.67
2017-09-23T07:29:36.639Z,49.30
2017-09-23T07:32:04.835Z,51.63
2017-09-23T07:34:32.276Z,54.10
2017-09-23T07:37:00.484Z,54.60
2017-09-23T07:39:27.895Z,54.70
2017-09-23T07:41:55.307Z,56.17
2017-09-23T07:44:22.726Z,56.73
2017-09-23T07:46:50.222Z,57.77
2017-09-23T07:49:17.654Z,57.67
2017-09-23T07:51:45.089Z,60.53
2017-09-23T07:54:13.262Z,58.67
2017-09-23T07:56:41.447Z,56.73
2017-09-23T07:59:09.318Z,56.20
2017-09-23T08:01:36.747Z,54.87
2017-09-23T08:04:04.927Z,57.90
2017-09-23T08:06:33.136Z,57.20
2017-09-23T08:09:00.589Z,56.00
2017-09-23T08:11:28.014Z,57.47
2017-09-23T08:13:56.583Z,59.37
2017-09-23T08:16:24.003Z,58.10
2017-09-23T08:18:51.415Z,56.83
2017-09-23T08:21:19.603Z,60.07
2017-09-23T08:23:47.075Z,59.43
2017-09-23T08:26:14.489Z,58.83
2017-09-23T08:28:42.664Z,58.37
2017-09-23T08:31:10.882Z,61.90
2017-09-23T08:33:38.321Z,59.47
2017-09-23T08:36:05.735Z,60.80
2017-09-23T08:38:33.928Z,60.40
2017-09-23T08:41:02.128Z,61.23
2017-09-23T08:43:30.111Z,59.73
2017-09-23T08:45:57.528Z,58.43
2017-09-23T08:48:25.709Z,58.27
2017-09-23T08:50:53.133Z,57.00
2017-09-23T08:53:20.651Z,59.87
2017-09-23T08:55:48.060Z,58.20
2017-09-23T08:58:16.270Z,58.87
2017-09-23T09:00:43.728Z,60.20
2017-09-23T09:03:11.287Z,60.57
2017-09-23T09:05:38.715Z,59.90
2017-09-23T09:08:06.923Z,59.07
2017-09-23T09:10:34.347Z,58.60
2017-09-23T09:13:02.527Z,58.07
2017-09-23T09:15:29.940Z,57.00
2017-09-23T09:17:57.470Z,57.20
2017-09-23T09:20:24.925Z,57.87
2017-09-23T09:22:52.319Z,56.13
2017-09-23T09:25:19.851Z,58.60
2017-09-23T09:27:47.254Z,56.27
2017-09-23T09:30:15.446Z,57.93
2017-09-23T09:32:42.863Z,56.13
2017-09-23T09:35:10.272Z,58.10
2017-09-23T09:37:37.727Z,59.80
2017-09-23T09:40:05.327Z,60.70
2017-09-23T09:42:32.764Z,62.70
2017-09-23T09:45:00.208Z,58.70
2017-09-23T09:47:27.655Z,59.40
2017-09-23T09:49:55.074Z,59.10
2017-09-23T09:52:23.263Z,60.03
2017-09-23T09:54:51.459Z,57.87
2017-09-23T09:57:18.915Z,60.97
2017-09-23T09:59:46.375Z,60.33
2017-09-23T10:02:13.798Z,58.50
2017-09-23T10:04:41.973Z,58.87
2017-09-23T10:07:10.154Z,59.77
2017-09-23T10:09:37.574Z,59.73
2017-09-23T10:12:05.197Z,57.43
2017-09-23T10:14:32.624Z,56.83
2017-09-23T10:17:00.824Z,58.63
2017-09-23T10:19:28.280Z,58.30
2017-09-23T10:21:55.698Z,59.00
2017-09-23T10:24:23.892Z,59.20
2017-09-23T10:26:51.309Z,58.90
2017-09-23T10:29:18.828Z,59.70
2017-09-23T10:31:46.281Z,60.93
2017-09-23T10:34:13.750Z,63.33
2017-09-23T10:36:41.171Z,63.13
2017-09-23T10:39:08.647Z,58.60
2017-09-23T10:41:36.075Z,59.53
2017-09-23T10:44:04.254Z,62.43
2017-09-23T10:46:31.687Z,59.97
2017-09-23T10:48:59.642Z,58.43
2017-09-23T10:51:27.578Z,60.53
2017-09-23T10:53:55.003Z,61.00
2017-09-23T10:56:22.427Z,62.23
2017-09-23T10:58:49.839Z,60.87
2017-09-23T11:01:17.823Z,63.50
2017-09-23T11:03:45.260Z,63.57
2017-09-23T11:06:12.691Z,61.70
2017-09-23T11:08:40.982Z,65.57
2017-09-23T11:11:08.807Z,62.87
2017-09-23T11:13:36.223Z,63.77
2017-09-23T11:16:03.646Z,61.97
2017-09-23T11:18:31.829Z,63.27
2017-09-23T11:21:00.020Z,68.90
2017-09-23T11:23:27.435Z,68.40
2017-09-23T11:25:55.647Z,68.80
2017-09-23T11:28:23.073Z,67.33
2017-09-23T11:30:51.242Z,67.80
2017-09-23T11:33:19.436Z,67.03
2017-09-23T11:35:47.712Z,66.80
2017-09-23T11:38:15.274Z,67.33
2017-09-23T11:40:42.695Z,65.53
2017-09-23T11:43:10.115Z,66.43
2017-09-23T11:45:38.375Z,63.57
2017-09-23T11:48:05.835Z,63.23
2017-09-23T11:50:33.315Z,65.20
2017-09-23T11:53:00.743Z,61.50
2017-09-23T11:55:28.163Z,59.23
2017-09-23T11:57:56.364Z,56.83
2017-09-23T12:00:23.777Z,56.00
2017-09-23T12:02:51.288Z,54.67
2017-09-23T12:05:18.675Z,53.50
2017-09-23T12:07:46.786Z,50.83
2017-09-23T12:10:14.202Z,51.50
2017-09-23T12:12:41.618Z,50.63
2017-09-23T12:15:09.186Z,44.30
2017-09-23T12:17:36.635Z,44.00
2017-09-23T12:20:04.097Z,47.00
2017-09-23T12:22:31.556Z,46.53
2017-09-23T12:24:58.966Z,41.80
2017-09-23T12:27:27.923Z,42.40
2017-09-23T12:29:55.350Z,43.27
2017-09-23T12:32:22.813Z,45.20
2017-09-23T12:34:50.294Z,44.33
2017-09-23T12:37:17.740Z,41.70
2017-09-23T12:39:45.135Z,40.83
2017-09-23T12:42:13.323Z,43.93
2017-09-23T12:44:41.538Z,39.10
2017-09-23T12:47:08.960Z,36.50
2017-09-23T12:49:36.442Z,36.30
2017-09-23T12:52:03.910Z,35.77
2017-09-23T12:54:31.356Z,36.00
2017-09-23T12:56:58.784Z,33.50
2017-09-23T12:59:26.207Z,29.77
2017-09-23T13:01:53.618Z,29.17
2017-09-23T13:04:21.043Z,31.33
2017-09-23T13:06:49.355Z,31.13
2017-09-23T13:09:16.771Z,30.20
2017-09-23T13:11:44.986Z,30.33
2017-09-23T13:14:12.446Z,31.00
2017-09-23T13:16:39.858Z,29.07
2017-09-23T13:19:08.051Z,30.60
2017-09-23T13:21:35.539Z,28.90
2017-09-23T13:24:02.963Z,30.07
2017-09-23T13:26:30.380Z,31.10
2017-09-23T13:28:57.801Z,32.40
2017-09-23T13:31:25.211Z,30.30
2017-09-23T13:33:53.446Z,31.67
2017-09-23T13:36:21.096Z,33.20
2017-09-23T13:38:48.511Z,32.70
2017-09-23T13:41:16.716Z,32.40
2017-09-23T13:43:44.131Z,32.93
2017-09-23T13:46:14.503Z,41.50
2017-09-23T13:48:41.963Z,44.57
2017-09-23T13:51:09.386Z,45.63
2017-09-23T13:53:36.801Z,47.27
2017-09-23T13:56:04.319Z,45.93
2017-09-23T13:58:31.726Z,44.97
2017-09-23T14:00:59.343Z,44.80
2017-09-23T14:03:26.798Z,43.33
2017-09-23T14:05:54.211Z,43.40
2017-09-23T14:08:22.406Z,41.33
2017-09-23T14:10:49.832Z,39.40
2017-09-23T14:13:17.470Z,39.80
2017-09-23T14:15:46.298Z,39.13
2017-09-23T14:18:14.509Z,39.73
2017-09-23T14:20:42.370Z,37.57
2017-09-23T14:23:09.778Z,39.77
2017-09-23T14:25:37.963Z,39.27
2017-09-23T14:28:06.174Z,41.20
2017-09-23T14:30:34.448Z,39.23
2017-09-23T14:33:01.894Z,33.97
2017-09-23T14:35:29.428Z,38.27
2017-09-23T14:37:57.602Z,35.90
2017-09-23T14:40:25.791Z,36.80
2017-09-23T14:42:53.599Z,35.20
2017-09-23T14:45:21.003Z,36.53
2017-09-23T14:47:48.422Z,35.93
2017-09-23T14:50:15.844Z,38.43
2017-09-23T14:52:43.302Z,37.23
2017-09-23T14:55:10.763Z,38.53
2017-09-23T14:57:38.422Z,37.80
2017-09-23T15:00:06.121Z,39.10
2017-09-23T15:02:33.630Z,38.17
2017-09-23T15:05:01.045Z,39.67
2017-09-23T15:07:29.487Z,39.63
2017-09-23T15:09:56.928Z,42.30
2017-09-23T15:12:24.351Z,39.80
2017-09-23T15:14:52.560Z,40.80
2017-09-23T15:17:19.962Z,38.60
2017-09-23T15:19:47.382Z,39.33
2017-09-23T15:22:14.822Z,40.43
2017-09-23T15:24:42.285Z,40.47
2017-09-23T15:27:09.739Z,42.27
2017-09-23T15:29:37.150Z,43.20
2017-09-23T15:32:05.371Z,41.07
2017-09-23T15:34:32.802Z,43.70
2017-09-23T15:37:00.983Z,43.60
2017-09-23T15:39:28.555Z,41.97
2017-09-23T15:41:55.971Z,40.57
2017-09-23T15:44:24.155Z,44.23
2017-09-23T15:46:52.334Z,40.33
2017-09-23T15:49:19.756Z,42.27
2017-09-23T15:51:47.430Z,42.27
2017-09-23T15:54:15.251Z,42.03
2017-09-23T15:56:42.666Z,41.33
2017-09-23T15:59:10.486Z,43.17
2017-09-23T16:01:37.916Z,42.20
2017-09-23T16:04:05.337Z,42.70
2017-09-23T16:06:33.515Z,40.00
2017-09-23T16:09:01.702Z,42.20
2017-09-23T16:11:29.119Z,40.93
2017-09-23T16:13:56.638Z,39.47
2017-09-23T16:16:24.057Z,40.83
2017-09-23T16:18:52.235Z,41.07
2017-09-23T16:21:20.424Z,42.03
2017-09-23T16:23:47.899Z,43.00
2017-09-23T16:26:15.336Z,41.30
2017-09-23T16:28:43.505Z,43.90
2017-09-23T16:31:10.923Z,45.23
2017-09-23T16:33:39.842Z,49.80
2017-09-23T16:36:08.481Z,49.07
2017-09-23T16:38:35.895Z,50.03
2017-09-23T16:41:03.375Z,52.17
2017-09-23T16:43:30.795Z,52.87
2017-09-23T16:45:58.997Z,51.90
2017-09-23T16:48:26.459Z,53.70
2017-09-23T16:50:53.878Z,55.03
2017-09-23T16:53:22.192Z,56.57
2017-09-23T16:55:49.584Z,52.57
2017-09-23T16:58:18.288Z,53.23
2017-09-23T17:00:46.579Z,50.17
2017-09-23T17:03:14.776Z,45.33
2017-09-23T17:05:42.214Z,46.60
2017-09-23T17:08:10.387Z,47.27
2017-09-23T17:10:37.807Z,46.40
2017-09-23T17:13:06.835Z,46.13
2017-09-23T17:15:34.320Z,47.20
2017-09-23T17:18:01.719Z,49.30
2017-09-23T17:20:29.563Z,47.13
2017-09-23T17:22:57.480Z,48.50
2017-09-23T17:25:25.684Z,47.83
2017-09-23T17:27:53.131Z,48.90
2017-09-23T17:30:20.552Z,50.63
2017-09-23T17:32:48.766Z,50.13
2017-09-23T17:35:16.183Z,47.73
2017-09-23T17:37:44.391Z,48.23
2017-09-23T17:40:11.815Z,47.10
2017-09-23T17:42:40.001Z,46.83
2017-09-23T17:45:08.075Z,45.97
2017-09-23T17:47:35.864Z,53.00
2017-09-23T17:50:03.283Z,49.93
2017-09-23T17:52:31.463Z,45.13
2017-09-23T17:54:58.878Z,41.40
2017-09-23T17:57:26.400Z,42.70
2017-09-23T17:59:53.823Z,43.97
2017-09-23T18:02:22.036Z,42.33
2017-09-23T18:04:49.426Z,43.10
2017-09-23T18:07:16.839Z,41.80
2017-09-23T18:09:44.259Z,42.83
2017-09-23T18:12:12.443Z,43.17
2017-09-23T18:14:40.630Z,43.20
2017-09-23T18:17:08.052Z,43.33
2017-09-23T18:19:35.555Z,44.67
2017-09-23T18:22:02.982Z,45.50
2017-09-23T18:24:30.468Z,45.30
2017-09-23T18:26:57.926Z,42.70
2017-09-23T18:29:25.353Z,42.90
2017-09-23T18:31:53.665Z,44.77
2017-09-23T18:34:21.064Z,45.60
2017-09-23T18:36:49.077Z,43.50
2017-09-23T18:39:16.535Z,43.33
2017-09-23T18:41:43.963Z,42.77
2017-09-23T18:44:12.146Z,44.07
2017-09-23T18:46:40.348Z,43.83
2017-09-23T18:49:07.758Z,44.27
2017-09-23T18:51:35.976Z,45.00
2017-09-23T18:54:03.395Z,44.53
2017-09-23T18:56:31.585Z,43.77
2017-09-23T18:58:59.007Z,44.20
2017-09-23T19:01:26.423Z,44.50
2017-09-23T19:03:53.844Z,44.63
2017-09-23T19:06:22.258Z,44.40
2017-09-23T19:08:49.653Z,45.33
2017-09-23T19:11:17.158Z,46.27
2017-09-23T19:13:44.579Z,46.53
2017-09-23T19:16:12.770Z,45.80
2017-09-23T19:18:40.252Z,46.93
2017-09-23T19:21:07.712Z,47.10
2017-09-23T19:23:35.786Z,47.97
2017-09-23T19:26:03.194Z,46.53
2017-09-23T19:28:31.373Z,48.77
2017-09-23T19:30:59.573Z,47.57
2017-09-23T19:33:26.986Z,48.13
2017-09-23T19:35:54.407Z,47.03
2017-09-23T19:38:22.541Z,46.80
2017-09-23T19:40:50.719Z,49.27
2017-09-23T19:43:18.130Z,49.83
2017-09-23T19:45:46.847Z,49.15
2017-09-23T19:48:15.027Z,46.20
2017-09-23T19:50:43.209Z,46.50
2017-09-23T19:53:10.622Z,46.30
2017-09-23T19:55:38.248Z,46.50
2017-09-23T19:58:05.635Z,44.40
2017-09-23T20:00:33.055Z,44.23
2017-09-23T20:03:00.826Z,42.30
2017-09-23T20:05:28.231Z,41.93
2017-09-23T20:07:56.450Z,43.27
2017-09-23T20:10:23.864Z,42.80
2017-09-23T20:12:52.042Z,43.23
2017-09-23T20:15:20.255Z,42.70
2017-09-23T20:17:47.671Z,43.30
2017-09-23T20:20:15.859Z,43.23
2017-09-23T20:22:43.650Z,41.83
2017-09-23T20:25:11.682Z,43.23
2017-09-23T20:27:39.873Z,43.03
2017-09-23T20:30:07.345Z,43.53
2017-09-23T20:32:34.765Z,43.20
2017-09-23T20:35:02.983Z,42.30
2017-09-23T20:37:30.439Z,42.00
2017-09-23T20:39:57.847Z,42.10
2017-09-23T20:42:25.352Z,43.67
2017-09-23T20:44:52.763Z,43.80
2017-09-23T20:47:20.937Z,42.17
2017-09-23T20:49:49.147Z,43.43
2017-09-23T20:52:16.542Z,42.97
2017-09-23T20:54:44.069Z,39.83
2017-09-23T20:57:11.630Z,39.50
2017-09-23T20:59:39.025Z,39.10
2017-09-23T21:02:06.443Z,40.37
2017-09-23T21:04:33.858Z,39.73
2017-09-23T21:07:02.046Z,40.20
2017-09-23T21:09:29.486Z,46.70
2017-09-23T21:11:56.955Z,47.07
2017-09-23T21:14:25.207Z,42.80
2017-09-23T21:16:52.713Z,42.50
2017-09-23T21:19:20.139Z,40.20
2017-09-23T21:21:48.403Z,37.43
2017-09-23T21:24:15.912Z,35.70
2017-09-23T21:26:43.333Z,33.40
2017-09-23T21:29:10.731Z,35.13
2017-09-23T21:31:38.153Z,33.97
2017-09-23T21:34:06.352Z,35.33
2017-09-23T21:36:33.798Z,35.40
2017-09-23T21:39:01.195Z,33.23
2017-09-23T21:41:30.110Z,32.90
2017-09-23T21:43:58.290Z,31.03
2017-09-23T21:46:25.891Z,30.30
2017-09-23T21:48:53.306Z,27.40
2017-09-23T21:51:20.731Z,28.50
2017-09-23T21:53:48.149Z,27.93
2017-09-23T21:56:15.590Z,27.47
2017-09-23T21:58:43.006Z,29.20
2017-09-23T22:01:10.455Z,29.47
2017-09-23T22:03:37.970Z,26.90
2017-09-23T22:06:05.391Z,26.37
2017-09-23T22:08:33.920Z,26.67
2017-09-23T22:11:01.334Z,24.70
2017-09-23T22:13:29.539Z,26.03
2017-09-23T22:15:56.959Z,24.37
2017-09-23T22:18:25.166Z,25.57
2017-09-23T22:20:52.727Z,26.03
2017-09-23T22:23:20.146Z,25.00
2017-09-23T22:25:48.321Z,26.33
2017-09-23T22:28:16.535Z,24.57
2017-09-23T22:30:44.816Z,23.47
2017-09-23T22:33:12.235Z,24.10
2017-09-23T22:35:39.947Z,23.60
2017-09-23T22:38:07.378Z,24.77
2017-09-23T22:40:34.836Z,22.80
2017-09-23T22:43:02.711Z,22.87
2017-09-23T22:45:30.153Z,24.00
2017-09-23T22:47:57.599Z,22.97
2017-09-23T22:50:25.056Z,23.33
2017-09-23T22:52:53.294Z,24.30
2017-09-23T22:55:20.739Z,23.00
2017-09-23T22:57:48.185Z,25.37
2017-09-23T23:00:15.664Z,24.67
2017-09-23T23:02:43.106Z,25.00
2017-09-23T23:05:10.503Z,24.80
2017-09-23T23:07:37.914Z,24.17
2017-09-23T23:10:05.443Z,22.50
2017-09-23T23:12:32.854Z,23.63
2017-09-23T23:15:01.072Z,22.87
2017-09-23T23:17:28.919Z,23.57
2017-09-23T23:19:57.118Z,23.40
2017-09-23T23:22:25.398Z,24.40
2017-09-23T23:24:53.135Z,23.40
2017-09-23T23:27:21.307Z,23.73
2017-09-23T23:29:48.751Z,23.40
2017-09-23T23:32:16.972Z,22.57
2017-09-23T23:34:44.516Z,22.80
2017-09-23T23:37:12.049Z,22.30
2017-09-23T23:39:39.495Z,22.37
2017-09-23T23:42:08.383Z,22.63
2017-09-23T23:44:36.673Z,21.20
2017-09-23T23:47:04.912Z,21.70
2017-09-23T23:49:32.519Z,21.20
2017-09-23T23:52:00.701Z,21.93
2017-09-23T23:54:28.188Z,21.93
2017-09-23T23:56:55.963Z,22.60
2017-09-23T23:59:24.162Z,21.90
